createdAt,value
2023-04-17T00:01:30.672Z,95412.22
2023-04-17T00:04:00.030Z,95407.75
2023-04-17T00:06:28.199Z,95409.53
2023-04-17T00:08:55.971Z,95416.81
2023-04-17T00:11:23.774Z,95406.00
2023-04-17T00:13:51.579Z,95405.38
2023-04-17T00:16:19.876Z,95406.34
2023-04-17T00:18:47.761Z,95410.00
2023-04-17T00:21:16.910Z,95404.91
2023-04-17T00:23:45.853Z,95403.47
2023-04-17T00:26:13.819Z,95408.09
2023-04-17T00:28:43.796Z,95400.63
2023-04-17T00:31:11.617Z,95404.09
2023-04-17T00:33:39.662Z,95407.13
2023-04-17T00:36:08.741Z,95411.16
2023-04-17T00:38:37.924Z,95404.78
2023-04-17T00:41:05.971Z,95404.78
2023-04-17T00:43:33.845Z,95404.16
2023-04-17T00:46:02.660Z,95408.59
2023-04-17T00:48:30.597Z,95407.34
2023-04-17T00:51:02.163Z,95396.06
2023-04-17T00:53:31.577Z,95396.38
2023-04-17T00:56:01.893Z,95403.84
2023-04-17T00:58:29.847Z,95402.06
2023-04-17T01:00:57.930Z,95405.13
2023-04-17T01:03:29.640Z,95401.28
2023-04-17T01:05:57.864Z,95406.84
2023-04-17T01:08:25.889Z,95404.47
2023-04-17T01:10:53.791Z,95400.22
2023-04-17T01:13:23.054Z,95396.88
2023-04-17T01:15:52.031Z,95394.03
2023-04-17T01:18:20.013Z,95396.56
2023-04-17T01:20:47.854Z,95390.97
2023-04-17T01:23:16.888Z,95393.69
2023-04-17T01:25:46.475Z,95388.59
2023-04-17T01:28:14.814Z,95396.06
2023-04-17T01:30:42.674Z,95394.81
2023-04-17T01:33:11.074Z,95384.78
2023-04-17T01:35:38.942Z,95389.72
2023-04-17T01:38:06.796Z,95391.94
2023-04-17T01:40:34.676Z,95392.44
2023-04-17T01:43:03.817Z,95394.47
2023-04-17T01:45:31.637Z,95394.19
2023-04-17T01:48:00.892Z,95391.94
2023-04-17T01:50:29.176Z,95392.53
2023-04-17T01:52:56.993Z,95393.03
2023-04-17T01:55:24.807Z,95388.94
2023-04-17T01:57:53.287Z,95395.28
2023-04-17T02:00:23.333Z,95399.41
2023-04-17T02:02:51.324Z,95399.41
2023-04-17T02:05:19.367Z,95400.03
2023-04-17T02:07:47.354Z,95403.22
2023-04-17T02:10:15.392Z,95397.34
2023-04-17T02:12:43.230Z,95400.53
2023-04-17T02:15:11.884Z,95397.34
2023-04-17T02:17:41.307Z,95402.91
2023-04-17T02:20:12.924Z,95400.53
2023-04-17T02:22:40.906Z,95405.59
2023-04-17T02:25:09.320Z,95404.50
2023-04-17T02:27:37.404Z,95401.47
2023-04-17T02:30:07.058Z,95398.63
2023-04-17T02:32:35.103Z,95397.53
2023-04-17T02:35:06.346Z,95405.34
2023-04-17T02:37:34.897Z,95401.31
2023-04-17T02:40:03.576Z,95403.38
2023-04-17T02:42:32.164Z,95401.47
2023-04-17T02:45:00.318Z,95399.09
2023-04-17T02:47:28.157Z,95401.81
2023-04-17T02:49:56.374Z,95396.56
2023-04-17T02:52:25.724Z,95389.41
2023-04-17T02:54:53.661Z,95394.63
2023-04-17T02:57:21.586Z,95390.34
2023-04-17T02:59:49.360Z,95388.91
2023-04-17T03:02:21.905Z,95393.84
2023-04-17T03:04:50.419Z,95392.88
2023-04-17T03:07:20.057Z,95396.22
2023-04-17T03:09:49.798Z,95401.47
2023-04-17T03:12:18.584Z,95402.91
2023-04-17T03:14:46.732Z,95391.28
2023-04-17T03:17:15.960Z,95387.94
2023-04-17T03:19:44.001Z,95387.81
2023-04-17T03:22:13.400Z,95380.63
2023-04-17T03:24:42.061Z,95385.09
2023-04-17T03:27:12.426Z,95385.13
2023-04-17T03:29:42.947Z,95376.84
2023-04-17T03:32:11.114Z,95385.25
2023-04-17T03:34:38.955Z,95383.66
2023-04-17T03:37:07.121Z,95394.00
2023-04-17T03:39:36.019Z,95398.94
2023-04-17T03:42:03.902Z,95388.91
2023-04-17T03:44:33.164Z,95383.19
2023-04-17T03:47:00.978Z,95397.03
2023-04-17T03:49:28.838Z,95396.22
2023-04-17T03:51:57.444Z,95397.66
2023-04-17T03:54:25.719Z,95389.66
2023-04-17T03:56:55.756Z,95389.88
2023-04-17T03:59:25.288Z,95386.38
2023-04-17T04:01:55.878Z,95395.28
2023-04-17T04:04:25.486Z,95396.22
2023-04-17T04:07:01.557Z,95397.50
2023-04-17T04:09:30.201Z,95397.97
2023-04-17T04:11:59.167Z,95398.78
2023-04-17T04:14:27.879Z,95408.69
2023-04-17T04:16:57.141Z,95409.13
2023-04-17T04:19:26.395Z,95404.66
2023-04-17T04:21:54.598Z,95412.16
2023-04-17T04:24:26.170Z,95417.88
2023-04-17T04:26:54.369Z,95416.59
2023-04-17T04:29:25.672Z,95413.25
2023-04-17T04:32:05.220Z,95411.50
2023-04-17T04:34:39.142Z,95407.69
2023-04-17T04:37:08.151Z,95413.91
2023-04-17T04:39:41.048Z,95413.06
2023-04-17T04:42:11.149Z,95412.88
2023-04-17T04:44:50.527Z,95425.28
2023-04-17T04:47:22.764Z,95421.09
2023-04-17T04:49:51.164Z,95422.41
2023-04-17T04:52:22.930Z,95427.50
2023-04-17T04:54:54.556Z,95419.69
2023-04-17T04:57:22.498Z,95421.59
2023-04-17T04:59:54.153Z,95430.41
2023-04-17T05:02:38.694Z,95423.72
2023-04-17T05:05:10.941Z,95429.63
2023-04-17T05:07:38.793Z,95428.53
2023-04-17T05:10:11.037Z,95412.63
2023-04-17T05:12:44.351Z,95417.53
2023-04-17T05:15:13.689Z,95413.56
2023-04-17T05:17:43.318Z,95403.53
2023-04-17T05:20:13.310Z,95412.28
2023-04-17T05:22:48.195Z,95423.44
2023-04-17T05:25:17.320Z,95427.91
2023-04-17T05:27:45.111Z,95417.72
2023-04-17T05:30:14.863Z,95429.81
2023-04-17T05:32:46.666Z,95435.69
2023-04-17T05:35:25.992Z,95436.47
2023-04-17T05:37:55.731Z,95450.31
2023-04-17T05:40:23.722Z,95446.81
2023-04-17T05:42:51.861Z,95451.69
2023-04-17T05:45:20.207Z,95461.91
2023-04-17T05:47:49.438Z,95437.91
2023-04-17T05:50:17.238Z,95458.88
2023-04-17T05:52:48.246Z,95461.09
2023-04-17T05:55:17.005Z,95451.38
2023-04-17T05:57:46.088Z,95460.78
2023-04-17T06:00:39.060Z,95464.00
2023-04-17T06:03:11.171Z,95458.13
2023-04-17T06:05:41.315Z,95463.06
2023-04-17T06:08:10.159Z,95458.44
2023-04-17T06:10:38.008Z,95461.78
2023-04-17T06:13:05.802Z,95466.72
2023-04-17T06:15:33.665Z,95471.00
2023-04-17T06:18:01.609Z,95465.09
2023-04-17T06:20:30.886Z,95470.06
2023-04-17T06:22:58.731Z,95475.44
2023-04-17T06:25:27.035Z,95465.00
2023-04-17T06:27:54.869Z,95475.91
2023-04-17T06:30:23.067Z,95496.25
2023-04-17T06:32:54.298Z,95496.91
2023-04-17T06:35:22.338Z,95496.16
2023-04-17T06:37:57.098Z,95506.38
2023-04-17T06:40:24.907Z,95513.34
2023-04-17T06:42:53.141Z,95514.38
2023-04-17T06:45:22.747Z,95506.69
2023-04-17T06:47:50.700Z,95516.50
2023-04-17T06:50:18.969Z,95513.44
2023-04-17T06:52:46.813Z,95510.19
2023-04-17T06:55:16.148Z,95497.66
2023-04-17T06:57:44.064Z,95504.38
2023-04-17T07:00:15.166Z,95506.03
2023-04-17T07:02:43.905Z,95505.88
2023-04-17T07:05:12.732Z,95504.34
2023-04-17T07:07:41.549Z,95507.72
2023-04-17T07:10:09.745Z,95518.81
2023-04-17T07:12:38.976Z,95524.72
2023-04-17T07:15:07.544Z,95508.03
2023-04-17T07:17:35.528Z,95517.91
2023-04-17T07:20:05.297Z,95514.28
2023-04-17T07:22:34.244Z,95517.78
2023-04-17T07:25:02.140Z,95508.22
2023-04-17T07:27:30.163Z,95507.19
2023-04-17T07:29:59.285Z,95512.47
2023-04-17T07:32:28.043Z,95510.13
2023-04-17T07:34:55.872Z,95496.81
2023-04-17T07:37:23.657Z,95504.19
2023-04-17T07:39:52.765Z,95505.56
2023-04-17T07:42:20.787Z,95504.63
2023-04-17T07:44:49.681Z,95504.13
2023-04-17T07:47:19.199Z,95499.66
2023-04-17T07:49:48.996Z,95503.97
2023-04-17T07:52:19.615Z,95512.75
2023-04-17T07:54:47.394Z,95516.72
2023-04-17T07:57:17.940Z,95504.16
2023-04-17T07:59:45.895Z,95511.84
2023-04-17T08:02:13.802Z,95513.44
2023-04-17T08:04:44.850Z,95512.31
2023-04-17T08:07:13.161Z,95522.66
2023-04-17T08:09:43.252Z,95522.47
2023-04-17T08:12:12.058Z,95512.31
2023-04-17T08:14:40.781Z,95516.75
2023-04-17T08:17:08.946Z,95510.69
2023-04-17T08:19:38.672Z,95513.72
2023-04-17T08:22:08.151Z,95515.63
2023-04-17T08:24:35.935Z,95521.34
2023-04-17T08:27:05.161Z,95510.81
2023-04-17T08:29:32.931Z,95516.81
2023-04-17T08:32:14.012Z,95510.25
2023-04-17T08:34:43.651Z,95525.63
2023-04-17T08:37:12.906Z,95522.00
2023-04-17T08:39:41.025Z,95526.09
2023-04-17T08:42:15.378Z,95532.50
2023-04-17T08:44:46.293Z,95524.81
2023-04-17T08:47:14.661Z,95532.38
2023-04-17T08:49:44.009Z,95530.38
2023-04-17T08:52:14.424Z,95531.97
2023-04-17T08:54:42.211Z,95538.78
2023-04-17T08:57:09.997Z,95535.53
2023-04-17T08:59:37.781Z,95534.78
2023-04-17T09:02:07.509Z,95540.84
2023-04-17T09:04:38.198Z,95537.78
2023-04-17T09:07:06.599Z,95528.94
2023-04-17T09:09:52.107Z,95538.81
2023-04-17T09:12:20.512Z,95531.75
2023-04-17T09:14:48.639Z,95543.41
2023-04-17T09:17:18.390Z,95537.75
2023-04-17T09:20:07.958Z,95537.81
2023-04-17T09:22:36.935Z,95538.88
2023-04-17T09:25:15.813Z,95536.94
2023-04-17T09:27:43.652Z,95542.56
2023-04-17T09:30:11.933Z,95537.00
2023-04-17T09:32:40.445Z,95538.91
2023-04-17T09:35:08.687Z,95537.06
2023-04-17T09:37:49.683Z,95547.22
2023-04-17T09:40:20.425Z,95551.56
2023-04-17T09:42:56.177Z,95543.28
2023-04-17T09:45:25.056Z,95542.91
2023-04-17T09:47:55.825Z,95543.47
2023-04-17T09:50:25.536Z,95549.91
2023-04-17T09:52:54.113Z,95548.78
2023-04-17T09:55:25.078Z,95552.88
2023-04-17T09:57:55.652Z,95557.09
2023-04-17T10:00:26.827Z,95559.25
2023-04-17T10:02:56.248Z,95557.00
2023-04-17T10:05:27.030Z,95549.78
2023-04-17T10:07:55.098Z,95556.88
2023-04-17T10:10:25.948Z,95558.59
2023-04-17T10:12:57.553Z,95560.91
2023-04-17T10:15:27.131Z,95551.19
2023-04-17T10:17:56.359Z,95552.59
2023-04-17T10:20:35.426Z,95549.31
2023-04-17T10:23:33.241Z,95542.81
2023-04-17T10:26:37.874Z,95547.88
2023-04-17T10:29:07.191Z,95546.97
2023-04-17T10:32:08.421Z,95539.53
2023-04-17T10:34:37.050Z,95542.13
2023-04-17T10:37:05.877Z,95537.50
2023-04-17T10:39:52.569Z,95537.22
2023-04-17T10:42:21.913Z,95542.00
2023-04-17T10:44:52.028Z,95539.53
2023-04-17T10:47:23.381Z,95541.75
2023-04-17T10:49:53.185Z,95546.34
2023-04-17T10:52:41.985Z,95544.72
2023-04-17T10:55:12.445Z,95546.19
2023-04-17T10:58:02.458Z,95535.84
2023-04-17T11:00:37.561Z,95541.13
2023-04-17T11:03:06.976Z,95531.78
2023-04-17T11:05:36.690Z,95529.75
2023-04-17T11:08:04.554Z,95523.53
2023-04-17T11:10:36.793Z,95530.88
2023-04-17T11:13:05.260Z,95526.16
2023-04-17T11:15:36.221Z,95524.25
2023-04-17T11:18:05.024Z,95522.94
2023-04-17T11:20:34.693Z,95523.81
2023-04-17T11:23:02.808Z,95520.78
2023-04-17T11:25:33.553Z,95520.44
2023-04-17T11:28:02.947Z,95511.94
2023-04-17T11:30:33.026Z,95517.53
2023-04-17T11:33:03.868Z,95516.31
2023-04-17T11:35:33.294Z,95515.34
2023-04-17T11:38:12.905Z,95515.63
2023-04-17T11:40:45.457Z,95522.41
2023-04-17T11:43:14.124Z,95514.25
2023-04-17T11:45:43.662Z,95516.72
2023-04-17T11:48:14.532Z,95516.19
2023-04-17T11:50:43.740Z,95516.56
2023-04-17T11:53:15.172Z,95518.19
2023-04-17T11:55:43.141Z,95513.78
2023-04-17T11:58:12.857Z,95511.97
2023-04-17T12:00:41.208Z,95505.09
2023-04-17T12:03:35.518Z,95512.63
2023-04-17T12:06:05.030Z,95511.44
2023-04-17T12:08:41.992Z,95506.69
2023-04-17T12:11:18.820Z,95511.44
2023-04-17T12:13:46.805Z,95512.22
2023-04-17T12:16:15.028Z,95513.63
2023-04-17T12:18:44.320Z,95512.41
2023-04-17T12:21:12.107Z,95516.38
2023-04-17T12:23:40.121Z,95513.03
2023-04-17T12:26:08.267Z,95511.63
2023-04-17T12:28:36.365Z,95503.50
2023-04-17T12:31:04.615Z,95509.03
2023-04-17T12:33:32.783Z,95497.38
2023-04-17T12:36:02.881Z,95492.25
2023-04-17T12:38:31.364Z,95498.38
2023-04-17T12:40:59.478Z,95498.31
2023-04-17T12:43:27.267Z,95491.19
2023-04-17T12:45:55.272Z,95492.88
2023-04-17T12:48:23.129Z,95497.69
2023-04-17T12:50:50.904Z,95481.44
2023-04-17T12:53:20.242Z,95489.81
2023-04-17T12:55:48.084Z,95482.28
2023-04-17T12:58:16.161Z,95486.19
2023-04-17T13:00:44.611Z,95485.41
2023-04-17T13:03:12.702Z,95487.03
2023-04-17T13:05:40.811Z,95475.94
2023-04-17T13:08:12.416Z,95477.94
2023-04-17T13:10:41.954Z,95486.50
2023-04-17T13:13:09.904Z,95476.25
2023-04-17T13:15:37.898Z,95478.91
2023-04-17T13:18:05.910Z,95478.38
2023-04-17T13:20:33.816Z,95471.41
2023-04-17T13:23:01.724Z,95483.78
2023-04-17T13:25:30.950Z,95479.03
2023-04-17T13:28:00.151Z,95472.22
2023-04-17T13:30:27.994Z,95469.34
2023-04-17T13:32:55.845Z,95468.44
2023-04-17T13:35:23.719Z,95461.53
2023-04-17T13:37:51.545Z,95464.03
2023-04-17T13:40:19.556Z,95461.59
2023-04-17T13:42:47.430Z,95471.16
2023-04-17T13:45:16.797Z,95459.22
2023-04-17T13:47:44.863Z,95460.72
2023-04-17T13:50:12.741Z,95467.94
2023-04-17T13:52:40.667Z,95469.22
2023-04-17T13:55:11.964Z,95460.31
2023-04-17T13:57:42.025Z,95453.66
2023-04-17T14:00:13.828Z,95452.19
2023-04-17T14:02:43.201Z,95464.06
2023-04-17T14:05:11.393Z,95462.63
2023-04-17T14:07:39.510Z,95457.16
2023-04-17T14:10:08.923Z,95460.25
2023-04-17T14:12:37.176Z,95455.25
2023-04-17T14:15:06.476Z,95452.81
2023-04-17T14:17:37.967Z,95453.38
2023-04-17T14:20:09.033Z,95444.66
2023-04-17T14:22:36.891Z,95444.50
2023-04-17T14:25:04.861Z,95443.75
2023-04-17T14:27:32.794Z,95441.03
2023-04-17T14:30:01.565Z,95445.22
2023-04-17T14:32:29.690Z,95442.09
2023-04-17T14:34:57.541Z,95434.97
2023-04-17T14:37:26.737Z,95439.66
2023-04-17T14:39:54.597Z,95435.38
2023-04-17T14:42:22.406Z,95438.00
2023-04-17T14:44:50.259Z,95430.69
2023-04-17T14:47:18.168Z,95428.28
2023-04-17T14:49:46.033Z,95427.72
2023-04-17T14:52:13.841Z,95422.94
2023-04-17T14:54:43.106Z,95424.84
2023-04-17T14:57:11.105Z,95430.38
2023-04-17T14:59:39.020Z,95423.38
2023-04-17T15:02:07.664Z,95421.41
2023-04-17T15:04:35.664Z,95424.97
2023-04-17T15:07:04.843Z,95426.56
2023-04-17T15:09:32.689Z,95431.72
2023-04-17T15:12:02.634Z,95421.81
2023-04-17T15:14:30.932Z,95427.63
2023-04-17T15:17:01.514Z,95442.81
2023-04-17T15:19:29.516Z,95436.94
2023-04-17T15:21:57.320Z,95432.06
2023-04-17T15:24:25.206Z,95432.34
2023-04-17T15:26:53.083Z,95439.44
2023-04-17T15:29:22.301Z,95424.06
2023-04-17T15:31:52.496Z,95440.31
2023-04-17T15:34:20.621Z,95426.25
2023-04-17T15:36:48.894Z,95429.72
2023-04-17T15:39:16.708Z,95429.66
2023-04-17T15:41:44.563Z,95430.09
2023-04-17T15:44:12.404Z,95429.91
2023-04-17T15:46:41.699Z,95429.94
2023-04-17T15:49:09.685Z,95417.22
2023-04-17T15:51:39.034Z,95422.16
2023-04-17T15:54:11.833Z,95425.50
2023-04-17T15:56:40.235Z,95420.66
2023-04-17T15:59:08.118Z,95417.56
2023-04-17T16:01:36.005Z,95424.09
2023-04-17T16:04:05.634Z,95427.13
2023-04-17T16:06:34.259Z,95425.06
2023-04-17T16:09:03.563Z,95426.25
2023-04-17T16:11:31.440Z,95429.03
2023-04-17T16:13:59.444Z,95423.56
2023-04-17T16:16:29.391Z,95428.25
2023-04-17T16:18:57.814Z,95430.03
2023-04-17T16:21:27.831Z,95421.03
2023-04-17T16:23:57.566Z,95422.31
2023-04-17T16:26:25.729Z,95432.50
2023-04-17T16:28:53.661Z,95434.84
2023-04-17T16:31:22.591Z,95432.91
2023-04-17T16:33:50.544Z,95433.25
2023-04-17T16:36:18.385Z,95439.59
2023-04-17T16:38:47.962Z,95430.31
2023-04-17T16:41:16.198Z,95436.06
2023-04-17T16:43:43.997Z,95439.41
2023-04-17T16:46:24.000Z,95436.16
2023-04-17T16:48:59.638Z,95438.16
2023-04-17T16:51:27.747Z,95437.34
2023-04-17T16:53:56.927Z,95434.28
2023-04-17T16:56:24.744Z,95436.22
2023-04-17T16:58:52.542Z,95437.13
2023-04-17T17:01:20.349Z,95446.69
2023-04-17T17:03:48.514Z,95435.75
2023-04-17T17:06:16.510Z,95456.41
2023-04-17T17:08:46.788Z,95450.59
2023-04-17T17:11:16.690Z,95443.47
2023-04-17T17:13:47.300Z,95451.84
2023-04-17T17:16:15.632Z,95451.28
2023-04-17T17:18:46.223Z,95459.22
2023-04-17T17:21:14.844Z,95450.44
2023-04-17T17:23:43.039Z,95442.44
2023-04-17T17:26:10.823Z,95450.13
2023-04-17T17:28:40.051Z,95458.97
2023-04-17T17:31:09.118Z,95457.72
2023-04-17T17:33:37.546Z,95458.88
2023-04-17T17:36:05.805Z,95465.19
2023-04-17T17:38:33.606Z,95472.47
2023-04-17T17:41:01.698Z,95470.50
2023-04-17T17:43:29.668Z,95471.47
2023-04-17T17:45:58.973Z,95465.19
2023-04-17T17:48:26.891Z,95468.09
2023-04-17T17:50:55.707Z,95463.16
2023-04-17T17:53:26.289Z,95465.28
2023-04-17T17:55:56.010Z,95471.47
2023-04-17T17:58:24.701Z,95461.41
2023-04-17T18:00:52.856Z,95461.75
2023-04-17T18:03:22.319Z,95474.81
2023-04-17T18:05:50.413Z,95472.66
2023-04-17T18:08:18.308Z,95477.78
2023-04-17T18:10:46.263Z,95478.00
2023-04-17T18:13:14.069Z,95472.06
2023-04-17T18:15:41.895Z,95477.91
2023-04-17T18:18:09.772Z,95472.09
2023-04-17T18:20:40.271Z,95475.00
2023-04-17T18:23:08.198Z,95484.44
2023-04-17T18:25:36.500Z,95479.28
2023-04-17T18:28:04.477Z,95481.94
2023-04-17T18:30:32.609Z,95478.13
2023-04-17T18:33:00.721Z,95484.91
2023-04-17T18:35:28.582Z,95478.16
2023-04-17T18:37:57.963Z,95484.13
2023-04-17T18:40:25.762Z,95485.72
2023-04-17T18:42:53.590Z,95480.38
2023-04-17T18:45:21.376Z,95491.22
2023-04-17T18:47:49.323Z,95492.97
2023-04-17T18:50:17.277Z,95489.34
2023-04-17T18:52:49.390Z,95488.13
2023-04-17T18:55:21.040Z,95493.78
2023-04-17T18:57:48.823Z,95492.00
2023-04-17T19:00:40.918Z,95490.47
2023-04-17T19:03:10.074Z,95486.94
2023-04-17T19:05:38.105Z,95487.88
2023-04-17T19:08:08.090Z,95493.16
2023-04-17T19:10:39.922Z,95485.72
2023-04-17T19:13:09.912Z,95484.50
2023-04-17T19:15:37.885Z,95494.81
2023-04-17T19:18:06.672Z,95493.22
2023-04-17T19:20:37.193Z,95502.06
2023-04-17T19:23:05.407Z,95495.16
2023-04-17T19:25:33.287Z,95498.78
2023-04-17T19:28:02.599Z,95499.06
2023-04-17T19:30:30.434Z,95496.34
2023-04-17T19:32:58.329Z,95492.44
2023-04-17T19:35:26.306Z,95491.75
2023-04-17T19:37:54.133Z,95488.28
2023-04-17T19:40:25.519Z,95484.94
2023-04-17T19:42:53.786Z,95495.00
2023-04-17T19:45:22.992Z,95486.34
2023-04-17T19:47:56.133Z,95487.06
2023-04-17T19:50:25.278Z,95486.59
2023-04-17T19:52:53.135Z,95478.06
2023-04-17T19:55:21.308Z,95485.66
2023-04-17T19:57:50.795Z,95478.38
2023-04-17T20:00:18.960Z,95477.06
2023-04-17T20:02:48.827Z,95472.31
2023-04-17T20:05:18.126Z,95475.84
2023-04-17T20:07:45.951Z,95467.81
2023-04-17T20:10:16.631Z,95461.84
2023-04-17T20:12:44.509Z,95460.06
2023-04-17T20:15:12.843Z,95462.00
2023-04-17T20:17:40.835Z,95461.84
2023-04-17T20:20:11.560Z,95461.22
2023-04-17T20:22:40.189Z,95459.97
2023-04-17T20:25:08.718Z,95459.06
2023-04-17T20:27:36.514Z,95464.38
2023-04-17T20:30:04.987Z,95458.91
2023-04-17T20:32:32.985Z,95459.44
2023-04-17T20:35:01.716Z,95451.34
2023-04-17T20:37:30.876Z,95460.16
2023-04-17T21:16:04.393Z,95450.81
2023-04-17T21:18:32.386Z,95454.69
2023-04-17T21:21:00.221Z,95449.06
2023-04-17T21:23:27.993Z,95443.56
2023-04-17T21:25:55.880Z,95435.72
2023-04-17T21:28:23.863Z,95440.06
2023-04-17T21:30:51.808Z,95435.75
2023-04-17T21:33:20.979Z,95436.25
2023-04-17T21:35:48.777Z,95429.69
2023-04-17T21:38:16.611Z,95428.88
2023-04-17T21:40:51.122Z,95432.78
2023-04-17T21:43:19.522Z,95425.47
2023-04-17T21:45:47.553Z,95420.34
2023-04-17T21:48:15.803Z,95422.97
2023-04-17T21:50:45.015Z,95424.50
2023-04-17T21:53:12.779Z,95417.97
2023-04-17T21:55:40.667Z,95414.69
2023-04-17T21:58:08.616Z,95414.34
2023-04-17T22:00:36.402Z,95408.63
2023-04-17T22:03:04.211Z,95417.38
2023-04-17T22:05:32.042Z,95421.97
2023-04-17T22:08:01.663Z,95414.69
2023-04-17T22:10:30.015Z,95411.72
2023-04-17T22:12:57.886Z,95421.38
2023-04-17T22:15:25.760Z,95420.09
2023-04-17T22:17:53.800Z,95430.03
2023-04-17T22:20:22.269Z,95418.75
2023-04-17T22:22:50.101Z,95412.84
2023-04-17T22:25:19.335Z,95421.38
2023-04-17T22:27:47.143Z,95421.53
2023-04-17T22:30:15.034Z,95416.22
2023-04-17T22:32:42.886Z,95417.03
2023-04-17T22:35:10.995Z,95425.53
2023-04-17T22:37:38.815Z,95426.97
2023-04-17T22:40:07.993Z,95417.88
2023-04-17T22:42:37.175Z,95426.47
2023-04-17T22:45:05.923Z,95425.50
2023-04-17T22:47:33.755Z,95426.47
2023-04-17T22:50:03.390Z,95425.91
2023-04-17T22:52:31.190Z,95430.41
2023-04-17T22:54:59.069Z,95413.19
2023-04-17T22:57:26.820Z,95431.53
2023-04-17T22:59:55.988Z,95428.00
2023-04-17T23:02:23.979Z,95425.53
2023-04-17T23:04:51.874Z,95420.31
2023-04-17T23:07:19.658Z,95421.72
2023-04-17T23:09:47.628Z,95408.78
2023-04-17T23:12:15.741Z,95420.75
2023-04-17T23:14:44.197Z,95421.44
2023-04-17T23:17:13.387Z,95422.59
2023-04-17T23:19:41.292Z,95443.22
2023-04-17T23:22:09.233Z,95451.34
2023-04-17T23:24:37.324Z,95446.56
2023-04-17T23:27:05.396Z,95451.50
2023-04-17T23:29:33.231Z,95448.22
2023-04-17T23:32:01.046Z,95444.91
2023-04-17T23:34:30.342Z,95448.78
2023-04-17T23:36:58.282Z,95450.19
2023-04-17T23:39:26.288Z,95451.00
2023-04-17T23:41:54.777Z,95450.16
2023-04-17T23:44:22.646Z,95450.56
2023-04-17T23:46:51.024Z,95447.31
2023-04-17T23:49:18.895Z,95441.56
2023-04-17T23:51:48.143Z,95445.88
2023-04-17T23:54:16.149Z,95443.84
2023-04-17T23:56:44.375Z,95441.44
2023-04-17T23:59:12.159Z,95437.41
